Time;durP1;ratioP1;P1;durP2;ratioP2;P2;SDS_P1;SDS_P2;PMS_P1;PMS_P2;Temp;Humidity;BMP_temperature;BMP_pressure;BME280_temperature;BME280_humidity;BME280_pressure;Samples;Min_cycle;Max_cycle;Signal;HPM_P1;HPM_P2
2023/08/09 00:00:13;;;;;;;1.55;0.98;;;18.10;99.90;;;;;;4943100;28;20027;-85
2023/08/09 00:02:39;;;;;;;1.05;0.90;;;18.00;99.90;;;;;;4966365;28;20647;-88
2023/08/09 00:05:05;;;;;;;1.00;0.80;;;18.10;99.90;;;;;;4941247;28;20049;-88
2023/08/09 00:07:31;;;;;;;1.17;1.00;;;18.10;99.90;;;;;;4957123;28;20030;-84
2023/08/09 00:09:57;;;;;;;0.98;0.80;;;18.10;99.90;;;;;;4958172;28;20027;-87
2023/08/09 00:12:23;;;;;;;1.60;0.97;;;18.10;99.90;;;;;;4975482;28;20035;-86
2023/08/09 00:14:48;;;;;;;2.67;1.08;;;18.10;99.90;;;;;;4964785;28;20515;-86
2023/08/09 00:17:14;;;;;;;1.80;1.00;;;18.10;99.90;;;;;;4942705;28;20029;-86
2023/08/09 00:19:40;;;;;;;3.53;1.33;;;18.10;99.90;;;;;;4936108;28;20018;-87
2023/08/09 00:22:06;;;;;;;2.92;1.08;;;18.10;99.90;;;;;;4941116;28;20037;-87
2023/08/09 00:24:32;;;;;;;1.58;0.88;;;18.10;99.90;;;;;;4946150;28;20587;-85
2023/08/09 00:26:58;;;;;;;1.73;1.00;;;18.10;99.90;;;;;;4954517;28;20041;-85
2023/08/09 00:29:24;;;;;;;1.85;1.00;;;18.10;99.90;;;;;;4965928;28;20433;-85
2023/08/09 00:31:49;;;;;;;1.30;1.03;;;18.10;99.90;;;;;;4930847;28;20612;-86
2023/08/09 00:34:15;;;;;;;1.08;0.88;;;18.10;99.90;;;;;;4964229;28;20054;-84
2023/08/09 00:36:41;;;;;;;2.10;1.10;;;18.10;99.90;;;;;;4972557;28;20018;-90
2023/08/09 00:39:06;;;;;;;1.50;1.00;;;18.10;99.90;;;;;;4965176;28;20046;-88
2023/08/09 00:41:32;;;;;;;1.33;0.97;;;18.10;99.90;;;;;;4945090;28;20271;-86
2023/08/09 00:43:58;;;;;;;1.88;1.20;;;18.10;99.90;;;;;;4936952;28;20036;-85
2023/08/09 00:46:24;;;;;;;1.30;0.93;;;18.00;99.90;;;;;;4942988;28;20034;-86
2023/08/09 00:48:50;;;;;;;1.97;1.00;;;18.10;99.90;;;;;;4975281;28;20026;-88
2023/08/09 00:51:18;;;;;;;2.17;1.15;;;18.10;99.90;;;;;;4972250;28;20493;-84
2023/08/09 00:53:44;;;;;;;2.30;1.30;;;18.10;99.90;;;;;;4960543;28;20403;-89
2023/08/09 00:56:09;;;;;;;1.93;1.17;;;18.10;99.90;;;;;;4950421;28;20129;-84
2023/08/09 00:58:35;;;;;;;2.38;1.20;;;18.10;99.90;;;;;;4934425;28;20235;-86
2023/08/09 01:01:01;;;;;;;1.83;1.00;;;18.10;99.90;;;;;;4965020;28;20632;-86
2023/08/09 01:03:27;;;;;;;1.92;1.08;;;18.10;99.90;;;;;;4920368;28;20061;-84
2023/08/09 01:06:13;;;;;;;1.50;1.20;;;18.10;99.90;;;;;;4952975;28;20464;-86
2023/08/09 01:08:56;;;;;;;2.65;1.08;;;18.10;99.90;;;;;;4950660;28;20129;-84
2023/08/09 01:11:46;;;;;;;2.22;1.00;;;18.10;99.90;;;;;;4964980;28;20223;-85
2023/08/09 01:14:15;;;;;;;1.67;1.17;;;18.10;99.90;;;;;;4937649;28;20493;-85
2023/08/09 01:16:42;;;;;;;2.15;1.20;;;18.10;99.90;;;;;;4951624;28;20114;-85
2023/08/09 01:19:15;;;;;;;1.90;1.20;;;18.20;99.90;;;;;;4927222;28;20473;-85
2023/08/09 01:21:44;;;;;;;2.00;1.30;;;18.20;99.90;;;;;;4972649;28;20033;-86
2023/08/09 01:24:12;;;;;;;2.30;1.40;;;18.20;99.90;;;;;;4951302;28;20030;-83
2023/08/09 01:26:41;;;;;;;1.77;1.10;;;18.20;99.90;;;;;;4951761;28;20484;-86
2023/08/09 01:29:07;;;;;;;2.45;1.30;;;18.20;99.90;;;;;;4958957;28;20027;-85
2023/08/09 01:31:33;;;;;;;1.80;1.30;;;18.20;99.90;;;;;;4942790;28;20336;-83
2023/08/09 01:33:58;;;;;;;2.03;0.93;;;18.20;99.90;;;;;;4925191;28;20527;-85
2023/08/09 01:36:33;;;;;;;0.93;0.75;;;18.20;99.90;;;;;;4952391;28;20038;-85
2023/08/09 01:39:07;;;;;;;0.67;0.60;;;18.20;99.90;;;;;;4977622;28;20030;-87
2023/08/09 01:41:34;;;;;;;1.05;0.70;;;18.20;99.90;;;;;;4947190;28;20128;-85
2023/08/09 01:44:00;;;;;;;0.65;0.65;;;18.20;99.90;;;;;;4944165;28;20034;-84
2023/08/09 01:46:26;;;;;;;0.90;0.70;;;18.20;99.90;;;;;;4941151;28;20402;-84
2023/08/09 01:49:06;;;;;;;0.50;0.50;;;17.60;99.90;;;;;;4955077;28;20034;-82
2023/08/09 01:51:32;;;;;;;0.50;0.50;;;18.20;99.90;;;;;;4975523;28;20026;-85
2023/08/09 01:53:58;;;;;;;0.40;0.40;;;18.10;99.90;;;;;;4977422;28;20422;-81
2023/08/09 01:56:24;;;;;;;0.50;0.40;;;18.10;99.90;;;;;;4956275;28;20042;-83
2023/08/09 01:58:50;;;;;;;0.57;0.40;;;18.10;99.90;;;;;;4943975;28;20023;-81
2023/08/09 02:01:16;;;;;;;0.40;0.40;;;18.10;99.90;;;;;;4953989;28;20077;-82
2023/08/09 02:03:42;;;;;;;0.60;0.60;;;18.00;99.90;;;;;;4949453;28;20035;-82
2023/08/09 02:06:08;;;;;;;0.60;0.50;;;18.00;99.90;;;;;;4938969;28;21007;-84
2023/08/09 02:08:33;;;;;;;0.50;0.50;;;18.00;99.90;;;;;;4959690;28;20237;-82
2023/08/09 02:10:59;;;;;;;0.77;0.40;;;18.00;99.90;;;;;;4958161;28;20027;-83
2023/08/09 02:13:25;;;;;;;0.35;0.35;;;18.00;99.90;;;;;;4964198;28;20237;-81
2023/08/09 02:15:51;;;;;;;0.30;0.30;;;18.00;99.90;;;;;;4966794;28;20027;-82
2023/08/09 02:18:17;;;;;;;0.50;0.50;;;18.00;99.90;;;;;;4932403;28;20051;-82
2023/08/09 02:20:43;;;;;;;0.57;0.50;;;18.00;99.90;;;;;;4951111;28;20030;-82
2023/08/09 02:23:09;;;;;;;0.40;0.40;;;18.00;99.90;;;;;;4951638;28;20019;-84
2023/08/09 02:25:34;;;;;;;0.50;0.50;;;18.10;99.90;;;;;;4946467;28;20558;-82
2023/08/09 02:28:00;;;;;;;0.57;0.50;;;18.10;99.90;;;;;;4964568;28;20053;-84
2023/08/09 02:30:26;;;;;;;0.40;0.40;;;18.00;99.90;;;;;;4962401;28;20062;-82
2023/08/09 02:32:52;;;;;;;0.65;0.50;;;18.00;99.90;;;;;;4941627;28;20031;-83
2023/08/09 02:35:17;;;;;;;0.40;0.40;;;18.00;99.90;;;;;;4959440;28;20092;-83
2023/08/09 02:37:43;;;;;;;0.60;0.60;;;18.00;99.90;;;;;;4931973;28;20402;-82
2023/08/09 02:40:10;;;;;;;0.55;0.50;;;18.00;99.90;;;;;;4954574;28;20018;-83
2023/08/09 02:42:37;;;;;;;0.65;0.60;;;18.00;99.90;;;;;;4960184;28;20033;-83
2023/08/09 02:45:03;;;;;;;1.10;0.80;;;18.00;99.90;;;;;;4962738;28;20589;-83
2023/08/09 02:47:29;;;;;;;0.60;0.60;;;18.10;99.90;;;;;;4935533;28;20641;-81
2023/08/09 02:49:55;;;;;;;0.63;0.63;;;18.10;99.90;;;;;;4948659;28;20042;-82
2023/08/09 02:52:21;;;;;;;0.80;0.70;;;18.00;99.90;;;;;;4945353;28;20112;-80
2023/08/09 02:54:47;;;;;;;1.00;0.73;;;18.00;99.90;;;;;;4963268;28;20030;-81
2023/08/09 02:57:13;;;;;;;0.98;0.75;;;18.00;99.90;;;;;;4940706;28;20466;-83
2023/08/09 02:59:39;;;;;;;0.87;0.70;;;18.00;99.90;;;;;;4945998;28;20060;-81
2023/08/09 03:02:05;;;;;;;1.20;0.80;;;18.00;99.90;;;;;;4939855;28;20082;-84
2023/08/09 03:04:31;;;;;;;0.90;0.80;;;19.80;99.90;;;;;;4960037;28;20574;-84
2023/08/09 03:06:57;;;;;;;1.63;0.90;;;18.00;99.90;;;;;;4940711;28;26474;-83
2023/08/09 03:09:23;;;;;;;1.20;1.00;;;18.00;99.90;;;;;;4968404;28;20077;-83
2023/08/09 03:11:49;;;;;;;1.58;0.80;;;17.90;99.90;;;;;;4944605;28;20206;-81
2023/08/09 03:14:15;;;;;;;1.42;0.90;;;18.00;99.90;;;;;;4961262;28;20473;-82
2023/08/09 03:16:41;;;;;;;1.23;0.90;;;;;;;;;;4941537;28;20583;-81
2023/08/09 03:19:08;;;;;;;1.40;1.00;;;17.90;99.90;;;;;;4940476;28;20506;-81
2023/08/09 03:21:34;;;;;;;1.08;0.98;;;17.90;99.90;;;;;;4941180;28;20393;-83
2023/08/09 03:24:01;;;;;;;1.40;1.00;;;;;;;;;;4955590;28;20070;-82
2023/08/09 03:26:26;;;;;;;1.73;1.17;;;17.90;99.90;;;;;;4938486;28;20031;-83
2023/08/09 03:28:53;;;;;;;1.70;1.20;;;17.90;99.90;;;;;;4962013;28;20047;-81
2023/08/09 03:31:19;;;;;;;2.47;1.30;;;17.90;99.90;;;;;;4955180;28;20123;-82
2023/08/09 03:33:45;;;;;;;2.50;1.38;;;17.90;99.90;;;;;;4937372;28;20307;-81
2023/08/09 03:36:12;;;;;;;1.60;1.20;;;18.00;99.90;;;;;;4979372;28;20026;-81
2023/08/09 03:38:38;;;;;;;1.80;1.20;;;17.90;99.90;;;;;;4940886;28;20023;-84
2023/08/09 03:41:04;;;;;;;2.20;1.33;;;17.90;99.90;;;;;;4950699;28;20030;-81
2023/08/09 03:43:30;;;;;;;1.83;1.30;;;17.90;99.90;;;;;;4948108;28;20033;-84
2023/08/09 03:45:56;;;;;;;2.10;1.40;;;17.90;99.90;;;;;;4946736;28;20030;-82
2023/08/09 03:48:21;;;;;;;2.05;1.30;;;17.90;99.90;;;;;;4958264;28;20027;-83
2023/08/09 03:50:47;;;;;;;2.70;1.60;;;17.90;99.90;;;;;;4953559;28;20641;-83
2023/08/09 03:53:13;;;;;;;2.13;1.27;;;17.90;99.90;;;;;;4938191;28;20109;-81
2023/08/09 03:55:38;;;;;;;2.30;1.50;;;17.90;99.90;;;;;;4937458;28;20019;-83
2023/08/09 03:58:04;;;;;;;2.30;1.52;;;17.90;99.90;;;;;;4951701;28;20018;-81
2023/08/09 04:00:32;;;;;;;2.47;1.50;;;17.90;99.90;;;;;;4961328;28;20041;-83
2023/08/09 04:02:57;;;;;;;2.13;1.40;;;17.90;99.90;;;;;;4958702;28;20356;-83
2023/08/09 04:05:23;;;;;;;2.45;1.50;;;17.90;99.90;;;;;;4950199;28;20104;-84
2023/08/09 04:07:49;;;;;;;2.33;1.53;;;17.90;99.90;;;;;;4944123;28;20030;-83
2023/08/09 04:10:16;;;;;;;2.60;1.70;;;17.80;99.90;;;;;;4947152;28;20018;-82
2023/08/09 04:12:42;;;;;;;2.85;1.60;;;17.90;99.90;;;;;;4935114;28;20026;-82
2023/08/09 04:15:08;;;;;;;3.20;1.98;;;17.80;99.90;;;;;;4949754;28;20092;-82
2023/08/09 04:17:34;;;;;;;3.85;2.03;;;17.80;99.90;;;;;;4945546;28;20035;-84
2023/08/09 04:20:00;;;;;;;3.93;2.10;;;17.80;99.90;;;;;;4953319;28;20022;-82
2023/08/09 04:22:26;;;;;;;3.50;2.10;;;17.80;99.90;;;;;;4946014;28;20034;-84
2023/08/09 04:24:52;;;;;;;3.17;1.90;;;17.80;99.90;;;;;;4942705;28;20058;-83
2023/08/09 04:27:18;;;;;;;3.27;1.90;;;17.80;99.90;;;;;;4953322;28;20061;-82
2023/08/09 04:29:43;;;;;;;4.05;2.33;;;17.70;99.90;;;;;;4967945;28;20104;-81
2023/08/09 04:32:09;;;;;;;5.10;2.20;;;17.70;99.90;;;;;;4965407;28;20054;-82
2023/08/09 04:34:35;;;;;;;3.95;2.15;;;17.70;99.90;;;;;;4942301;28;20018;-84
2023/08/09 04:37:01;;;;;;;3.80;2.40;;;17.70;99.90;;;;;;4957960;28;20026;-82
2023/08/09 04:39:26;;;;;;;3.80;2.10;;;17.60;99.90;;;;;;4924416;28;20041;-83
2023/08/09 04:41:53;;;;;;;3.37;2.00;;;17.60;99.90;;;;;;4952562;28;20606;-82
2023/08/09 04:44:20;;;;;;;3.65;1.95;;;17.60;99.90;;;;;;4957521;28;20023;-82
2023/08/09 04:46:46;;;;;;;3.85;2.15;;;17.60;99.90;;;;;;4945067;28;20716;-82
2023/08/09 04:49:12;;;;;;;3.90;1.95;;;17.50;99.90;;;;;;4972272;28;20085;-82
2023/08/09 04:51:37;;;;;;;4.53;2.40;;;17.50;99.90;;;;;;4963047;28;20022;-84
2023/08/09 04:54:03;;;;;;;4.22;2.38;;;17.50;99.90;;;;;;4945765;28;20030;-83
2023/08/09 04:56:29;;;;;;;4.43;2.30;;;17.50;99.90;;;;;;4941178;28;20022;-83
2023/08/09 04:58:55;;;;;;;3.70;2.03;;;17.50;99.90;;;;;;4939318;28;20650;-82
2023/08/09 05:01:21;;;;;;;4.13;2.40;;;17.50;99.90;;;;;;4952165;28;20367;-84
2023/08/09 05:03:47;;;;;;;4.50;2.30;;;17.40;99.90;;;;;;4932621;28;20026;-82
2023/08/09 05:06:12;;;;;;;4.40;2.47;;;17.40;99.90;;;;;;4956477;28;20050;-84
2023/08/09 05:08:38;;;;;;;5.43;2.63;;;16.40;99.90;;;;;;4926639;28;20268;-82
2023/08/09 05:11:04;;;;;;;4.53;2.50;;;17.40;99.90;;;;;;4955057;28;20030;-83
2023/08/09 05:13:30;;;;;;;5.35;2.97;;;17.40;99.90;;;;;;4947995;28;20236;-82
2023/08/09 05:15:55;;;;;;;6.63;3.07;;;17.40;99.90;;;;;;4941209;28;20108;-81
2023/08/09 05:18:21;;;;;;;7.57;3.55;;;17.40;99.90;;;;;;4972855;28;20025;-84
2023/08/09 05:20:47;;;;;;;7.20;3.93;;;17.40;99.90;;;;;;4961195;28;20124;-83
2023/08/09 05:23:13;;;;;;;7.85;3.72;;;17.40;99.90;;;;;;4956172;28;20053;-84
2023/08/09 05:25:38;;;;;;;8.17;4.13;;;17.80;99.90;;;;;;4937642;28;20264;-83
2023/08/09 05:28:04;;;;;;;7.97;4.20;;;17.40;99.90;;;;;;4962184;28;20720;-82
2023/08/09 05:30:30;;;;;;;7.00;3.63;;;17.40;99.90;;;;;;4943776;28;20031;-83
2023/08/09 05:32:58;;;;;;;7.60;3.80;;;17.40;99.90;;;;;;4942186;28;20549;-81
2023/08/09 05:35:26;;;;;;;8.25;4.00;;;17.40;99.90;;;;;;4969982;28;20018;-82
2023/08/09 05:37:52;;;;;;;7.93;4.03;;;17.40;99.90;;;;;;4967921;28;20485;-81
2023/08/09 05:40:18;;;;;;;8.10;4.18;;;17.30;99.90;;;;;;4941549;28;20029;-81
2023/08/09 05:42:44;;;;;;;7.63;3.80;;;17.30;99.90;;;;;;4943208;28;20035;-83
2023/08/09 05:45:10;;;;;;;6.90;3.67;;;17.30;99.90;;;;;;4961750;28;20018;-82
2023/08/09 05:47:36;;;;;;;7.50;4.05;;;17.30;99.90;;;;;;4958629;28;20033;-83
2023/08/09 05:50:02;;;;;;;7.03;3.80;;;17.20;99.90;;;;;;4968404;28;20029;-83
2023/08/09 05:52:28;;;;;;;7.55;4.15;;;17.20;99.90;;;;;;4946227;28;20725;-83
2023/08/09 05:54:53;;;;;;;7.72;3.92;;;17.20;99.90;;;;;;4954469;28;20512;-83
2023/08/09 05:57:19;;;;;;;8.00;4.00;;;17.20;99.90;;;;;;4946422;28;20109;-82
2023/08/09 05:59:45;;;;;;;8.30;3.80;;;17.20;99.90;;;;;;4952200;28;20104;-81
2023/08/09 06:02:11;;;;;;;8.15;3.85;;;17.20;99.90;;;;;;4938534;28;20697;-83
2023/08/09 06:04:37;;;;;;;8.03;4.20;;;17.20;99.90;;;;;;4961430;28;20062;-81
2023/08/09 06:07:04;;;;;;;9.50;4.28;;;17.20;99.90;;;;;;4977924;28;20034;-83
2023/08/09 06:09:30;;;;;;;9.95;4.50;;;17.20;99.90;;;;;;4941840;28;20033;-82
2023/08/09 06:11:55;;;;;;;9.18;4.25;;;17.10;99.90;;;;;;4947735;28;20022;-83
2023/08/09 06:14:22;;;;;;;8.60;4.17;;;17.30;99.90;;;;;;4974709;28;20789;-83
2023/08/09 06:16:48;;;;;;;8.55;3.80;;;17.20;99.90;;;;;;4942174;28;20030;-82
2023/08/09 06:19:14;;;;;;;9.77;4.37;;;17.30;99.90;;;;;;4948283;28;20263;-82
2023/08/09 06:21:41;;;;;;;9.95;4.85;;;17.30;99.90;;;;;;4969544;28;20112;-81
2023/08/09 06:24:07;;;;;;;9.88;4.50;;;17.30;99.90;;;;;;4948787;28;20130;-83
2023/08/09 06:26:33;;;;;;;10.68;4.78;;;17.40;99.90;;;;;;4953849;28;20041;-83
2023/08/09 06:29:00;;;;;;;9.35;4.70;;;17.50;99.90;;;;;;4934327;28;20504;-83
2023/08/09 06:31:25;;;;;;;7.73;3.83;;;17.50;99.90;;;;;;4947595;28;20030;-82
2023/08/09 06:33:53;;;;;;;9.70;4.50;;;17.60;99.90;;;;;;4942157;28;20033;-83
2023/08/09 06:36:19;;;;;;;8.75;4.45;;;17.70;99.90;;;;;;4946865;28;20890;-83
2023/08/09 06:38:44;;;;;;;9.47;4.57;;;17.70;99.90;;;;;;4968495;28;20026;-82
2023/08/09 06:41:10;;;;;;;9.10;4.30;;;19.20;99.90;;;;;;4923130;28;20585;-82
2023/08/09 06:43:36;;;;;;;7.50;3.93;;;17.90;99.90;;;;;;4945092;28;20030;-83
2023/08/09 06:46:01;;;;;;;8.55;4.47;;;17.90;99.90;;;;;;4965386;28;20030;-83
2023/08/09 06:48:29;;;;;;;9.37;4.77;;;18.00;99.90;;;;;;4954098;28;20019;-83
2023/08/09 06:50:59;;;;;;;9.43;4.88;;;18.10;99.90;;;;;;4937669;28;20022;-83
2023/08/09 06:53:25;;;;;;;8.98;4.60;;;18.10;99.90;;;;;;4947115;28;20365;-83
2023/08/09 06:55:51;;;;;;;8.23;4.60;;;18.20;99.90;;;;;;4962406;28;20061;-85
2023/08/09 06:58:17;;;;;;;9.02;5.07;;;19.40;99.90;;;;;;4929369;28;20279;-82
2023/08/09 07:00:45;;;;;;;8.52;4.78;;;18.40;99.90;;;;;;4953953;28;20030;-85
2023/08/09 07:03:11;;;;;;;9.07;4.90;;;;;;;;;;4961222;28;20261;-83
2023/08/09 07:05:37;;;;;;;10.02;5.20;;;18.50;99.90;;;;;;4928747;28;20084;-83
2023/08/09 07:08:03;;;;;;;8.30;4.57;;;18.60;99.90;;;;;;4967174;28;20708;-83
2023/08/09 07:10:29;;;;;;;8.00;4.30;;;18.70;99.90;;;;;;4942400;28;20042;-85
2023/08/09 07:12:54;;;;;;;7.90;4.53;;;18.80;99.90;;;;;;4952511;28;20303;-84
2023/08/09 07:15:20;;;;;;;7.82;4.50;;;18.90;99.90;;;;;;4943563;28;20245;-85
2023/08/09 07:17:46;;;;;;;7.55;4.35;;;19.00;99.90;;;;;;4954773;28;20019;-84
2023/08/09 07:20:14;;;;;;;6.47;3.73;;;19.10;99.90;;;;;;4940613;28;20018;-84
2023/08/09 07:22:41;;;;;;;7.35;3.97;;;19.10;99.90;;;;;;4983092;28;20049;-84
2023/08/09 07:25:07;;;;;;;6.90;3.88;;;19.10;99.90;;;;;;4966421;28;20639;-85
2023/08/09 07:27:40;;;;;;;7.22;4.32;;;19.20;99.90;;;;;;4922450;28;20578;-85
2023/08/09 07:30:06;;;;;;;6.57;4.15;;;19.20;99.90;;;;;;4934558;28;20034;-84
2023/08/09 07:32:32;;;;;;;5.97;3.73;;;19.30;99.90;;;;;;4965747;28;20117;-85
2023/08/09 07:34:58;;;;;;;6.82;3.97;;;19.30;99.90;;;;;;4956840;28;20026;-84
2023/08/09 07:37:24;;;;;;;6.68;4.05;;;19.40;99.90;;;;;;4969162;28;20022;-86
2023/08/09 07:39:49;;;;;;;6.90;4.43;;;19.40;99.90;;;;;;4963583;28;20026;-86
2023/08/09 07:42:15;;;;;;;7.78;4.78;;;19.40;99.90;;;;;;4932485;28;20026;-85
2023/08/09 07:44:41;;;;;;;7.13;4.47;;;18.50;99.90;;;;;;4924686;28;20627;-86
2023/08/09 07:47:07;;;;;;;6.60;4.23;;;19.60;99.90;;;;;;4950564;28;20043;-85
2023/08/09 07:49:32;;;;;;;7.45;4.45;;;19.70;99.90;;;;;;4966992;28;20058;-84
2023/08/09 07:51:58;;;;;;;7.97;4.30;;;19.80;99.90;;;;;;4934223;28;20022;-86
2023/08/09 07:54:24;;;;;;;7.70;4.93;;;19.80;99.90;;;;;;4945188;28;20097;-86
2023/08/09 07:56:50;;;;;;;7.20;4.60;;;19.80;99.90;;;;;;4962257;28;20018;-84
2023/08/09 07:59:15;;;;;;;7.22;4.68;;;19.80;99.90;;;;;;4966682;28;20060;-86
2023/08/09 08:01:41;;;;;;;8.50;4.77;;;19.90;99.90;;;;;;4927858;28;20196;-86
2023/08/09 08:04:07;;;;;;;7.63;4.95;;;20.00;99.90;;;;;;4964123;28;20059;-86
2023/08/09 08:06:33;;;;;;;8.23;4.93;;;21.50;99.90;;;;;;4952079;28;20409;-87
2023/08/09 08:08:58;;;;;;;6.32;4.45;;;20.30;99.90;;;;;;4948471;28;20164;-86
2023/08/09 08:11:24;;;;;;;5.40;3.83;;;20.50;99.90;;;;;;4961138;28;20604;-86
2023/08/09 08:13:50;;;;;;;6.35;4.07;;;20.60;99.90;;;;;;4943261;28;20218;-88
2023/08/09 08:16:15;;;;;;;5.43;4.00;;;20.70;99.90;;;;;;4932771;28;20046;-87
2023/08/09 08:18:41;;;;;;;5.72;3.55;;;20.80;99.90;;;;;;4968583;28;20327;-84
2023/08/09 08:21:08;;;;;;;3.93;2.90;;;23.70;99.90;;;;;;4966947;28;20030;-84
2023/08/09 08:23:34;;;;;;;4.28;2.80;;;21.10;99.90;;;;;;4956360;28;20173;-84
2023/08/09 08:26:00;;;;;;;3.47;2.60;;;21.30;99.90;;;;;;4957545;28;20042;-88
2023/08/09 08:28:26;;;;;;;3.65;2.40;;;21.40;99.90;;;;;;4954692;28;20110;-89
2023/08/09 08:30:52;;;;;;;3.87;2.27;;;21.50;99.90;;;;;;4944108;28;20113;-87
2023/08/09 08:33:17;;;;;;;3.58;2.35;;;21.60;99.90;;;;;;4929033;28;20110;-87
2023/08/09 08:35:48;;;;;;;3.17;2.43;;;21.80;99.90;;;;;;4948428;28;20084;-87
2023/08/09 08:38:14;;;;;;;2.70;2.13;;;22.10;99.90;;;;;;4936702;28;20111;-87
2023/08/09 08:40:40;;;;;;;2.92;2.22;;;22.40;99.90;;;;;;4948591;28;20452;-87
2023/08/09 08:43:08;;;;;;;2.60;2.03;;;22.90;99.90;;;;;;4948709;28;20046;-89
2023/08/09 08:45:38;;;;;;;3.70;2.40;;;23.40;99.90;;;;;;4953452;28;20039;-88
2023/08/09 08:48:12;;;;;;;3.75;2.40;;;23.90;99.90;;;;;;4922856;28;20044;-89
2023/08/09 08:50:39;;;;;;;2.90;2.50;;;24.40;99.90;;;;;;4969020;28;20049;-91
2023/08/09 08:53:06;;;;;;;4.85;2.58;;;24.90;99.90;;;;;;4938392;28;20077;-88
2023/08/09 08:55:32;;;;;;;3.17;2.30;;;25.20;99.90;;;;;;4938004;28;20130;-89
2023/08/09 08:57:58;;;;;;;3.00;2.50;;;25.40;99.90;;;;;;4944176;28;20173;-87
2023/08/09 09:00:24;;;;;;;3.97;2.47;;;25.40;99.90;;;;;;4956135;28;20105;-90
2023/08/09 09:02:50;;;;;;;2.90;2.10;;;25.30;99.90;;;;;;4943994;28;20044;-87
2023/08/09 09:05:16;;;;;;;3.40;2.60;;;25.30;99.90;;;;;;4943508;28;20157;-88
2023/08/09 09:07:56;;;;;;;3.67;2.33;;;25.30;99.90;;;;;;4960560;28;20041;-89
2023/08/09 09:10:23;;;;;;;2.92;2.20;;;25.50;99.90;;;;;;4959762;28;20299;-89
2023/08/09 09:12:55;;;;;;;2.70;1.90;;;25.80;99.90;;;;;;4959436;28;20061;-87
2023/08/09 09:15:23;;;;;;;2.20;1.87;;;26.20;99.90;;;;;;4956355;28;20222;-88
2023/08/09 09:17:49;;;;;;;2.92;1.88;;;26.60;99.90;;;;;;4941037;28;20066;-86
2023/08/09 09:20:29;;;;;;;2.10;1.80;;;27.00;99.90;;;;;;4930857;28;20252;-88
2023/08/09 09:22:55;;;;;;;1.92;1.70;;;27.30;99.90;;;;;;4941716;28;20559;-87
2023/08/09 09:25:22;;;;;;;1.80;1.60;;;27.60;99.90;;;;;;4944536;28;20121;-93
2023/08/09 09:27:52;;;;;;;2.07;1.53;;;27.60;99.90;;;;;;4941633;28;20347;-92
2023/08/09 09:30:21;;;;;;;2.67;1.80;;;27.50;99.90;;;;;;4931226;28;20035;-86
2023/08/09 09:33:00;;;;;;;1.80;1.70;;;27.40;99.90;;;;;;4926259;28;20362;-88
2023/08/09 09:35:31;;;;;;;1.75;1.65;;;27.40;99.90;;;;;;4950191;28;20067;-86
2023/08/09 09:37:58;;;;;;;1.95;1.70;;;27.50;99.90;;;;;;4952412;28;20614;-90
2023/08/09 09:40:32;;;;;;;2.00;1.70;;;27.60;99.90;;;;;;4932727;28;20023;-87
2023/08/09 09:42:59;;;;;;;2.75;1.80;;;27.90;99.90;;;;;;4975821;28;20532;-87
2023/08/09 09:45:27;;;;;;;3.40;2.20;;;28.20;99.90;;;;;;4948719;28;20814;-89
2023/08/09 09:47:55;;;;;;;2.33;2.00;;;28.50;99.90;;;;;;4940245;28;20243;-90
2023/08/09 09:50:23;;;;;;;2.30;2.10;;;28.80;99.90;;;;;;4938874;28;20045;-87
2023/08/09 09:52:49;;;;;;;2.10;1.90;;;29.20;99.90;;;;;;4934467;28;20049;-86
2023/08/09 09:55:20;;;;;;;2.10;1.88;;;29.50;99.90;;;;;;4939704;28;20537;-87
2023/08/09 09:57:47;;;;;;;2.90;2.50;;;29.80;99.90;;;;;;4959298;28;20110;-90
2023/08/09 10:00:20;;;;;;;2.67;2.25;;;30.00;99.90;;;;;;4957324;28;20417;-87
2023/08/09 10:02:48;;;;;;;2.40;2.20;;;30.10;99.90;;;;;;4933419;28;20364;-89
2023/08/09 10:05:44;;;;;;;2.47;2.27;;;30.10;99.90;;;;;;4932939;28;20125;-87
2023/08/09 10:08:13;;;;;;;2.25;2.05;;;30.30;99.90;;;;;;4938125;28;20051;-87
2023/08/09 10:10:41;;;;;;;2.40;2.20;;;30.40;99.90;;;;;;4946786;28;20237;-90
2023/08/09 10:13:09;;;;;;;2.35;1.83;;;30.50;99.90;;;;;;4936827;28;20027;-88
2023/08/09 10:15:42;;;;;;;2.67;2.28;;;30.60;99.90;;;;;;4954518;28;20663;-89
2023/08/09 10:18:33;;;;;;;2.20;1.93;;;30.60;99.90;;;;;;4940295;28;20027;-87
2023/08/09 10:21:01;;;;;;;2.10;1.90;;;30.50;99.90;;;;;;4936849;28;20401;-87
2023/08/09 10:23:29;;;;;;;2.47;2.28;;;30.30;99.90;;;;;;4954030;28;20505;-86
2023/08/09 10:25:55;;;;;;;2.40;2.17;;;30.20;99.90;;;;;;4954941;28;20042;-88
2023/08/09 10:28:44;;;;;;;2.60;2.17;;;30.20;99.90;;;;;;4935494;28;20675;-90
2023/08/09 10:31:13;;;;;;;2.30;2.10;;;30.30;99.90;;;;;;4956829;28;20046;-88
2023/08/09 10:34:06;;;;;;;2.95;2.30;;;30.30;99.90;;;;;;4956947;28;21071;-87
2023/08/09 10:36:33;;;;;;;2.20;2.00;;;30.20;99.90;;;;;;4935091;28;20737;-88
2023/08/09 10:39:07;;;;;;;1.98;1.80;;;30.10;99.90;;;;;;4930275;28;20532;-85
2023/08/09 10:41:33;;;;;;;2.17;1.98;;;29.90;99.90;;;;;;4978432;28;20047;-91
2023/08/09 10:44:03;;;;;;;1.60;1.50;;;29.80;99.90;;;;;;4945100;28;20427;-84
2023/08/09 10:46:33;;;;;;;2.10;1.75;;;29.80;99.90;;;;;;4946005;28;20041;-90
2023/08/09 10:49:04;;;;;;;2.00;1.80;;;29.80;99.90;;;;;;4938207;28;20547;-89
2023/08/09 10:51:30;;;;;;;2.70;1.90;;;29.90;99.90;;;;;;4940364;28;20038;-90
2023/08/09 10:54:04;;;;;;;1.80;1.70;;;30.00;99.90;;;;;;4961018;28;20551;-86
2023/08/09 10:56:34;;;;;;;2.97;2.00;;;30.10;99.90;;;;;;4948963;28;20026;-90
2023/08/09 10:59:09;;;;;;;2.00;1.83;;;30.30;99.90;;;;;;4949710;28;20034;-86
2023/08/09 11:01:36;;;;;;;1.98;1.88;;;30.60;99.90;;;;;;4939633;28;20041;-89
2023/08/09 11:04:08;;;;;;;1.90;1.70;;;30.70;99.90;;;;;;4932764;28;20153;-90
2023/08/09 11:06:39;;;;;;;2.33;1.93;;;30.90;99.90;;;;;;4962442;28;20101;-87
2023/08/09 11:09:06;;;;;;;2.10;1.90;;;31.20;99.90;;;;;;4919059;28;20060;-91
2023/08/09 11:11:33;;;;;;;2.00;1.80;;;31.50;99.90;;;;;;4939147;28;20118;-91
2023/08/09 11:13:59;;;;;;;2.38;1.92;;;31.80;99.90;;;;;;4931533;28;20034;-85
2023/08/09 11:16:26;;;;;;;2.20;2.00;;;32.00;99.90;;;;;;4945005;28;20018;-88
2023/08/09 11:19:04;;;;;;;2.20;2.00;;;32.20;99.90;;;;;;4955379;28;20026;-84
2023/08/09 11:21:43;;;;;;;2.30;2.10;;;32.40;99.90;;;;;;4944033;28;20066;-88
2023/08/09 11:24:10;;;;;;;2.10;1.90;;;32.60;99.90;;;;;;4953116;28;20544;-87
2023/08/09 11:26:53;;;;;;;1.90;1.80;;;32.80;99.90;;;;;;4938864;28;20676;-88
2023/08/09 11:29:21;;;;;;;1.60;1.50;;;33.00;99.90;;;;;;4948764;28;20411;-90
2023/08/09 11:31:49;;;;;;;2.25;2.00;;;33.20;99.90;;;;;;4956176;28;20046;-86
2023/08/09 11:34:18;;;;;;;2.60;1.90;;;33.40;99.90;;;;;;4963577;28;20034;-88
2023/08/09 11:36:46;;;;;;;2.20;2.00;;;33.40;99.90;;;;;;4954262;28;20037;-86
2023/08/09 11:39:13;;;;;;;1.67;1.40;;;33.50;99.90;;;;;;4952608;28;20042;-88
2023/08/09 11:41:59;;;;;;;2.40;1.45;;;33.50;99.90;;;;;;4925327;28;20026;-93
2023/08/09 11:44:34;;;;;;;2.28;2.08;;;33.60;99.90;;;;;;4953462;28;20389;-88
2023/08/09 11:47:01;;;;;;;2.35;1.70;;;33.70;99.80;;;;;;4964586;28;20679;-91
2023/08/09 11:49:31;;;;;;;2.30;2.10;;;33.60;99.90;;;;;;4945307;28;20088;-88
2023/08/09 11:52:01;;;;;;;2.00;1.80;;;33.40;99.60;;;;;;4951586;28;20062;-89
2023/08/09 11:54:28;;;;;;;2.78;1.73;;;33.20;99.90;;;;;;4939321;28;20030;-87
2023/08/09 11:56:54;;;;;;;1.98;1.70;;;33.10;99.90;;;;;;4939543;28;20116;-86
2023/08/09 11:59:22;;;;;;;2.95;1.90;;;32.90;99.90;;;;;;4945249;28;20031;-85
2023/08/09 12:01:51;;;;;;;3.10;1.90;;;32.80;99.90;;;;;;4934932;28;20652;-90
2023/08/09 12:04:21;;;;;;;2.13;1.93;;;32.80;99.90;;;;;;4948889;28;20122;-86
2023/08/09 12:06:55;;;;;;;2.00;1.80;;;32.80;99.90;;;;;;4967331;28;20669;-89
2023/08/09 12:09:39;;;;;;;1.83;1.70;;;32.80;99.90;;;;;;4979676;28;20860;-88
2023/08/09 12:12:14;;;;;;;2.33;1.80;;;32.80;99.90;;;;;;4942493;28;20039;-92
2023/08/09 12:14:42;;;;;;;2.03;1.70;;;33.00;99.90;;;;;;4938393;28;20026;-87
2023/08/09 12:17:20;;;;;;;2.30;2.10;;;33.20;99.90;;;;;;4950271;28;20032;-90
2023/08/09 12:19:46;;;;;;;2.00;1.90;;;33.40;99.90;;;;;;4980591;28;20217;-85
2023/08/09 12:22:13;;;;;;;2.42;2.20;;;33.50;99.90;;;;;;4941749;28;20558;-87
2023/08/09 12:24:39;;;;;;;2.03;1.85;;;33.60;99.90;;;;;;4979984;28;20413;-88
2023/08/09 12:27:05;;;;;;;2.13;1.87;;;33.70;99.90;;;;;;4953112;28;20038;-87
2023/08/09 12:29:31;;;;;;;2.33;1.95;;;33.90;99.90;;;;;;4947404;28;20030;-88
2023/08/09 12:31:57;;;;;;;1.98;1.88;;;34.10;99.90;;;;;;4949852;28;20026;-89
2023/08/09 12:34:23;;;;;;;2.10;1.90;;;34.30;99.90;;;;;;4962770;28;20030;-85
2023/08/09 12:36:49;;;;;;;5.13;2.10;;;34.50;99.90;;;;;;4931051;28;20765;-87
2023/08/09 12:39:15;;;;;;;2.13;1.80;;;34.70;99.90;;;;;;4949261;28;20021;-89
2023/08/09 12:41:41;;;;;;;2.17;2.00;;;34.80;99.90;;;;;;4929490;28;20350;-84
2023/08/09 12:44:07;;;;;;;3.50;2.00;;;35.00;99.90;;;;;;4924868;28;20582;-87
2023/08/09 12:46:34;;;;;;;2.22;1.83;;;35.00;99.90;;;;;;4953262;28;20042;-86
2023/08/09 12:49:01;;;;;;;2.73;2.20;;;35.10;99.90;;;;;;4956145;28;20133;-87